Time;durP1;ratioP1;P1;durP2;ratioP2;P2;SDS_P1;SDS_P2;PMS_P1;PMS_P2;Temp;Humidity;BMP_temperature;BMP_pressure;BME280_temperature;BME280_humidity;BME280_pressure;Samples;Min_cycle;Max_cycle;Signal;HPM_P1;HPM_P2
2022/04/20 00:28:57;;;;;;;7.57;3.20;;;7.10;99.90;;;;;;5268673;22;20366;-69
2022/04/20 00:31:22;;;;;;;7.32;3.00;;;7.00;99.90;;;;;;5091328;28;20117;-69
2022/04/20 00:33:48;;;;;;;10.95;3.70;;;7.00;99.90;;;;;;5091993;28;20055;-67
2022/04/20 00:36:14;;;;;;;9.02;3.13;;;7.00;99.90;;;;;;5092415;28;20043;-68
2022/04/20 00:38:39;;;;;;;8.18;3.25;;;7.00;99.90;;;;;;5074170;28;20079;-69
2022/04/20 00:41:06;;;;;;;7.90;3.20;;;7.00;99.90;;;;;;5095380;28;20403;-68
2022/04/20 00:43:32;;;;;;;8.48;3.00;;;7.00;99.90;;;;;;5078227;28;20044;-68
2022/04/20 00:45:59;;;;;;;7.75;3.00;;;7.00;99.90;;;;;;5078478;28;20052;-68
2022/04/20 00:48:26;;;;;;;8.60;3.45;;;6.90;99.90;;;;;;5077770;28;20059;-69
2022/04/20 00:50:52;;;;;;;8.75;3.53;;;6.90;99.90;;;;;;5096371;28;20083;-69
2022/04/20 00:53:18;;;;;;;9.90;3.30;;;6.90;99.90;;;;;;5096705;28;20082;-69
2022/04/20 00:55:43;;;;;;;8.75;3.65;;;6.80;99.90;;;;;;5096707;28;20436;-69
2022/04/20 00:58:09;;;;;;;9.93;3.63;;;6.70;99.90;;;;;;5096584;28;20130;-68
2022/04/20 01:00:35;;;;;;;9.15;3.50;;;6.70;99.90;;;;;;5096212;28;20044;-68
2022/04/20 01:03:01;;;;;;;9.77;3.88;;;6.60;99.90;;;;;;5095928;28;20119;-69
2022/04/20 01:05:27;;;;;;;10.32;3.65;;;6.60;99.90;;;;;;5095799;28;20040;-69
2022/04/20 01:07:54;;;;;;;8.90;3.58;;;6.50;99.90;;;;;;5096375;28;20052;-69
2022/04/20 01:10:20;;;;;;;11.15;3.83;;;6.50;99.90;;;;;;5078064;28;20422;-68
2022/04/20 01:12:46;;;;;;;7.22;3.22;;;6.40;99.90;;;;;;5096070;28;20115;-68
2022/04/20 01:15:12;;;;;;;9.05;3.55;;;6.40;99.90;;;;;;5096067;28;20047;-69
2022/04/20 01:17:38;;;;;;;11.00;3.88;;;6.30;99.90;;;;;;5095975;28;20036;-69
2022/04/20 01:20:15;;;;;;;13.30;3.65;;;6.30;99.90;;;;;;5095281;28;20047;-68
2022/04/20 01:22:42;;;;;;;7.03;3.03;;;6.30;99.90;;;;;;5077589;28;20112;-68
2022/04/20 01:25:08;;;;;;;9.38;3.40;;;6.20;99.90;;;;;;5096002;28;20058;-68
2022/04/20 01:27:36;;;;;;;9.82;3.65;;;6.20;99.90;;;;;;5095551;28;20244;-68
2022/04/20 01:30:03;;;;;;;8.02;3.42;;;6.20;99.90;;;;;;5095778;28;20407;-69
2022/04/20 01:32:29;;;;;;;8.15;3.22;;;6.10;99.90;;;;;;5095737;28;20051;-68
2022/04/20 01:34:54;;;;;;;9.13;3.58;;;6.10;99.90;;;;;;5095234;28;20404;-69
2022/04/20 01:37:20;;;;;;;8.95;3.80;;;6.00;99.90;;;;;;5095459;28;20079;-68
2022/04/20 01:39:46;;;;;;;8.55;3.58;;;5.90;99.90;;;;;;5077755;28;20079;-69
2022/04/20 01:42:11;;;;;;;8.70;3.63;;;5.90;99.90;;;;;;5077837;28;20047;-69
2022/04/20 01:44:37;;;;;;;8.73;3.47;;;5.80;99.90;;;;;;5095598;28;20113;-69
2022/04/20 01:47:03;;;;;;;8.80;3.70;;;5.80;99.90;;;;;;5077109;28;20048;-69
2022/04/20 01:49:29;;;;;;;8.05;3.25;;;5.70;99.90;;;;;;5095229;28;20040;-69
2022/04/20 01:51:55;;;;;;;9.57;3.50;;;5.70;99.90;;;;;;5094833;28;20051;-69
2022/04/20 01:54:20;;;;;;;8.82;3.28;;;5.70;99.90;;;;;;5077102;28;20475;-68
2022/04/20 01:56:51;;;;;;;8.85;3.47;;;5.70;99.90;;;;;;5095374;28;20051;-69
2022/04/20 01:59:17;;;;;;;9.88;3.35;;;5.70;99.90;;;;;;5095370;28;20111;-69
2022/04/20 02:04:27;;;;;;;9.32;3.35;;;5.70;99.90;;;;;;5076783;28;20090;-69
2022/04/20 02:06:53;;;;;;;9.05;3.63;;;5.70;99.90;;;;;;5076613;28;20075;-69
2022/04/20 02:09:19;;;;;;;8.73;3.67;;;5.70;99.90;;;;;;5094742;28;20150;-67
2022/04/20 02:11:44;;;;;;;7.63;3.47;;;5.60;99.90;;;;;;5077072;28;20044;-69
2022/04/20 02:14:10;;;;;;;7.18;3.17;;;5.60;99.90;;;;;;5076810;28;20052;-68
2022/04/20 02:16:36;;;;;;;9.48;3.30;;;5.50;99.90;;;;;;5094900;28;20040;-68
2022/04/20 02:19:02;;;;;;;8.27;3.60;;;5.50;99.90;;;;;;5094630;28;20044;-68
2022/04/20 02:21:28;;;;;;;8.57;3.13;;;5.40;99.90;;;;;;5076251;28;20147;-67
2022/04/20 02:23:54;;;;;;;8.20;3.47;;;5.30;99.90;;;;;;5076104;28;20044;-68
2022/04/20 02:26:19;;;;;;;8.63;3.35;;;5.30;99.90;;;;;;5059358;28;20470;-69
2022/04/20 02:28:45;;;;;;;7.40;3.10;;;5.30;99.90;;;;;;5094546;28;20060;-68
2022/04/20 02:31:10;;;;;;;9.18;3.40;;;5.20;99.90;;;;;;5094632;28;20048;-68
2022/04/20 02:33:36;;;;;;;7.78;3.38;;;5.20;99.90;;;;;;5076277;28;20422;-68
2022/04/20 02:36:02;;;;;;;7.78;3.20;;;5.10;99.90;;;;;;5094640;28;20052;-69
2022/04/20 02:38:29;;;;;;;8.07;3.30;;;5.10;99.90;;;;;;5076662;28;20039;-69
2022/04/20 02:40:55;;;;;;;7.38;2.92;;;5.00;99.90;;;;;;5093898;28;20036;-68
2022/04/20 02:43:21;;;;;;;9.02;3.63;;;5.00;99.90;;;;;;5076462;28;20093;-67
2022/04/20 02:45:46;;;;;;;7.63;3.03;;;5.00;99.90;;;;;;5076090;28;20052;-68
2022/04/20 02:48:12;;;;;;;8.65;3.65;;;5.00;99.90;;;;;;5094167;28;20449;-68
2022/04/20 02:50:38;;;;;;;9.07;3.50;;;4.90;99.90;;;;;;5075948;28;20044;-68
2022/04/20 02:53:04;;;;;;;8.40;3.30;;;4.80;99.90;;;;;;5094138;28;20052;-68
2022/04/20 02:55:29;;;;;;;9.25;3.35;;;4.80;99.90;;;;;;5093920;28;20490;-68
2022/04/20 02:57:55;;;;;;;8.65;3.63;;;4.80;99.90;;;;;;5075598;28;20036;-68
2022/04/20 03:00:20;;;;;;;9.13;3.95;;;4.80;99.90;;;;;;5093926;28;20040;-68
2022/04/20 03:02:46;;;;;;;8.32;3.63;;;4.80;99.90;;;;;;5075291;28;20047;-68
2022/04/20 03:05:12;;;;;;;10.15;4.03;;;4.80;99.90;;;;;;5093475;28;20036;-69
2022/04/20 03:07:38;;;;;;;9.02;4.05;;;4.80;99.90;;;;;;5093913;28;20506;-68
2022/04/20 03:10:04;;;;;;;8.63;3.70;;;4.80;99.90;;;;;;5094061;28;20039;-68
2022/04/20 03:12:29;;;;;;;8.05;3.65;;;4.70;99.90;;;;;;5075368;28;20044;-68
2022/04/20 03:14:55;;;;;;;10.60;4.18;;;4.70;99.90;;;;;;5093534;28;20085;-68
2022/04/20 03:17:22;;;;;;;10.55;4.10;;;4.70;99.90;;;;;;5093757;28;20406;-69
2022/04/20 03:19:47;;;;;;;7.82;3.65;;;4.70;99.90;;;;;;5093701;28;20380;-69
2022/04/20 03:22:13;;;;;;;10.35;3.88;;;5.10;99.90;;;;;;5075046;28;20093;-69
2022/04/20 03:24:39;;;;;;;10.60;3.60;;;4.60;99.90;;;;;;5093800;28;20047;-69
2022/04/20 03:27:05;;;;;;;8.75;3.30;;;4.60;99.90;;;;;;5093218;28;20067;-68
2022/04/20 03:29:31;;;;;;;11.85;3.78;;;4.50;99.90;;;;;;5074531;28;20060;-67
2022/04/20 03:31:56;;;;;;;8.00;3.17;;;4.50;99.90;;;;;;5093662;28;20044;-68
2022/04/20 03:34:22;;;;;;;9.60;3.65;;;4.50;99.90;;;;;;5075771;28;20109;-68
2022/04/20 03:36:48;;;;;;;8.90;3.70;;;4.50;99.90;;;;;;5075401;28;20044;-68
2022/04/20 03:39:14;;;;;;;7.75;3.42;;;4.50;99.90;;;;;;5093603;28;20395;-68
2022/04/20 03:41:39;;;;;;;8.63;3.25;;;4.40;99.90;;;;;;5093243;28;20047;-68
2022/04/20 03:44:05;;;;;;;8.35;3.65;;;4.90;99.90;;;;;;5092936;28;20076;-68
2022/04/20 03:46:31;;;;;;;10.45;3.45;;;4.30;99.90;;;;;;5093218;28;20123;-68
2022/04/20 03:48:57;;;;;;;8.65;3.47;;;4.30;99.90;;;;;;5093323;28;20119;-68
2022/04/20 03:51:22;;;;;;;7.57;3.45;;;4.30;99.90;;;;;;5093193;28;20082;-68
2022/04/20 03:53:48;;;;;;;11.50;3.70;;;4.30;99.90;;;;;;5093185;28;20414;-69
2022/04/20 03:56:14;;;;;;;8.55;3.60;;;4.30;99.90;;;;;;5074959;28;20127;-68
2022/04/20 03:58:39;;;;;;;8.60;3.90;;;4.30;99.90;;;;;;5093399;28;20125;-68
2022/04/20 04:01:05;;;;;;;9.85;3.35;;;4.40;99.90;;;;;;5092618;28;20105;-68
2022/04/20 04:03:31;;;;;;;9.73;3.63;;;4.30;99.90;;;;;;5093029;28;20044;-67
2022/04/20 04:05:57;;;;;;;10.80;3.90;;;4.30;99.90;;;;;;5093004;28;20098;-68
2022/04/20 04:08:23;;;;;;;9.15;3.65;;;4.30;99.90;;;;;;5093083;28;20379;-68
2022/04/20 04:10:50;;;;;;;10.07;3.92;;;4.20;99.90;;;;;;5093038;28;20403;-68
2022/04/20 04:13:17;;;;;;;8.68;3.70;;;4.20;99.90;;;;;;5093128;28;20093;-69
2022/04/20 04:15:43;;;;;;;10.13;4.22;;;4.10;99.90;;;;;;5077617;28;20470;-69
2022/04/20 04:18:09;;;;;;;8.45;3.70;;;4.20;99.90;;;;;;5078750;28;20048;-68
2022/04/20 04:20:35;;;;;;;8.70;3.78;;;4.10;99.90;;;;;;5061830;28;20052;-68
2022/04/20 04:23:01;;;;;;;9.63;3.28;;;4.10;99.90;;;;;;5096945;28;20449;-69
2022/04/20 04:25:27;;;;;;;9.63;3.35;;;4.20;99.90;;;;;;5079120;28;20048;-68
2022/04/20 04:27:52;;;;;;;7.93;3.42;;;4.20;99.90;;;;;;5078752;28;20051;-68
2022/04/20 04:30:18;;;;;;;8.20;3.08;;;4.20;99.90;;;;;;5097155;28;20398;-68
2022/04/20 04:32:44;;;;;;;8.93;4.18;;;4.20;99.90;;;;;;5096424;28;20051;-68
2022/04/20 04:35:09;;;;;;;8.13;3.30;;;4.20;99.90;;;;;;5096771;28;20122;-68
2022/04/20 04:37:35;;;;;;;10.55;3.63;;;4.20;99.90;;;;;;5061815;28;20060;-68
2022/04/20 04:40:02;;;;;;;8.85;3.40;;;4.20;99.90;;;;;;5096892;28;20044;-68
2022/04/20 04:42:28;;;;;;;7.57;3.42;;;4.20;99.90;;;;;;5096867;28;20036;-68
2022/04/20 04:44:53;;;;;;;9.82;3.75;;;4.10;99.90;;;;;;5078132;28;20472;-68
2022/04/20 04:50:04;;;;;;;9.35;4.05;;;4.10;99.90;;;;;;5096230;28;20044;-68
2022/04/20 04:52:31;;;;;;;8.57;4.15;;;4.10;99.90;;;;;;5096322;28;20055;-68
2022/04/20 04:54:57;;;;;;;8.50;3.03;;;4.10;99.90;;;;;;5078357;28;20096;-68
2022/04/20 04:57:22;;;;;;;10.00;3.35;;;4.10;99.90;;;;;;5096574;28;20048;-68
2022/04/20 04:59:48;;;;;;;8.52;3.42;;;4.10;99.90;;;;;;5096383;28;20036;-68
2022/04/20 05:02:14;;;;;;;8.60;3.50;;;4.10;99.90;;;;;;5096357;28;20048;-68
2022/04/20 05:04:40;;;;;;;8.52;3.53;;;4.10;99.90;;;;;;5095871;28;20047;-68
2022/04/20 05:07:06;;;;;;;9.10;3.40;;;4.10;99.90;;;;;;5077814;28;20048;-68
2022/04/20 05:09:32;;;;;;;8.85;2.90;;;4.10;99.90;;;;;;5096295;28;20048;-69
2022/04/20 05:11:58;;;;;;;9.50;2.92;;;4.20;99.90;;;;;;5078194;28;20067;-69
2022/04/20 05:14:24;;;;;;;7.82;3.00;;;4.20;99.90;;;;;;5078225;28;20048;-68
2022/04/20 05:16:50;;;;;;;10.00;3.13;;;4.20;99.90;;;;;;5078017;28;20551;-67
2022/04/20 05:19:16;;;;;;;12.65;3.35;;;4.20;99.90;;;;;;5096160;28;20113;-67
2022/04/20 05:21:41;;;;;;;8.95;3.47;;;4.20;99.90;;;;;;5077058;28;20389;-68
2022/04/20 05:24:07;;;;;;;10.38;3.13;;;4.20;99.90;;;;;;5096228;28;20395;-68
2022/04/20 05:26:33;;;;;;;8.75;2.90;;;4.30;99.90;;;;;;5094870;28;20040;-68
2022/04/20 05:28:59;;;;;;;11.43;3.47;;;4.30;99.90;;;;;;5097561;28;20049;-68
2022/04/20 05:31:24;;;;;;;8.73;3.45;;;4.40;99.90;;;;;;5106540;28;20039;-68
2022/04/20 05:33:50;;;;;;;9.02;3.30;;;4.50;99.90;;;;;;5086501;28;20056;-70
2022/04/20 05:36:18;;;;;;;7.70;2.72;;;4.50;99.90;;;;;;5086568;28;20483;-68
2022/04/20 05:41:42;;;;;;;8.35;3.38;;;4.70;99.90;;;;;;5115979;28;20472;-69
2022/04/20 05:44:10;;;;;;;7.38;2.95;;;4.80;99.90;;;;;;5116234;28;20043;-69
2022/04/20 05:46:35;;;;;;;8.75;3.30;;;4.90;99.90;;;;;;5115820;28;20333;-70
2022/04/20 05:49:01;;;;;;;7.35;3.03;;;5.10;99.90;;;;;;5115552;28;20570;-69
2022/04/20 05:51:27;;;;;;;8.20;3.25;;;5.10;99.90;;;;;;5116186;28;20048;-68
2022/04/20 05:53:53;;;;;;;13.73;4.05;;;5.20;99.90;;;;;;5115313;28;20402;-69
2022/04/20 05:56:18;;;;;;;11.13;3.70;;;5.30;99.90;;;;;;5115760;28;20040;-69
2022/04/20 05:58:50;;;;;;;8.65;3.40;;;5.40;99.90;;;;;;5097460;28;20044;-69
2022/04/20 06:01:16;;;;;;;10.52;3.42;;;5.50;99.90;;;;;;5097769;28;20043;-69
2022/04/20 06:03:42;;;;;;;10.88;3.17;;;5.50;99.90;;;;;;5097129;28;20078;-70
2022/04/20 06:06:07;;;;;;;13.55;3.53;;;5.60;99.90;;;;;;5097418;28;20140;-68
2022/04/20 06:08:33;;;;;;;7.05;2.90;;;5.80;99.90;;;;;;5114855;28;20501;-69
2022/04/20 06:10:59;;;;;;;8.18;2.92;;;5.90;99.90;;;;;;5097175;28;20044;-69
2022/04/20 06:13:25;;;;;;;10.32;2.83;;;6.00;99.90;;;;;;5097149;28;20087;-68
2022/04/20 06:15:52;;;;;;;11.48;3.58;;;6.10;99.90;;;;;;5115474;28;20035;-69
2022/04/20 06:18:18;;;;;;;9.07;3.92;;;6.20;99.90;;;;;;5115234;28;20079;-69
2022/04/20 06:20:43;;;;;;;10.45;3.17;;;6.30;99.90;;;;;;5079940;28;20091;-69
2022/04/20 06:23:09;;;;;;;8.25;3.08;;;6.50;99.90;;;;;;5097106;28;20503;-69
2022/04/20 06:25:34;;;;;;;8.27;3.22;;;6.60;99.90;;;;;;5096258;28;20044;-68
2022/04/20 06:28:02;;;;;;;7.55;3.33;;;6.70;99.90;;;;;;5114821;28;20054;-69
2022/04/20 06:30:28;;;;;;;10.65;3.67;;;6.80;99.90;;;;;;5095974;28;20048;-73
2022/04/20 06:32:54;;;;;;;10.32;3.05;;;6.90;99.90;;;;;;5078722;28;20113;-72
2022/04/20 06:35:20;;;;;;;8.73;3.13;;;7.20;99.90;;;;;;5092957;28;20480;-69
2022/04/20 06:37:45;;;;;;;8.43;2.95;;;7.10;99.90;;;;;;5092931;28;20084;-72
2022/04/20 06:40:11;;;;;;;6.95;2.95;;;7.20;99.90;;;;;;5075161;28;20075;-73
2022/04/20 06:42:37;;;;;;;8.82;3.30;;;7.20;99.90;;;;;;5092953;28;20041;-73
2022/04/20 06:45:03;;;;;;;9.10;3.15;;;7.30;99.90;;;;;;5075685;28;20044;-76
2022/04/20 06:47:29;;;;;;;9.50;3.47;;;7.40;99.90;;;;;;5092825;28;20055;-74
2022/04/20 06:49:55;;;;;;;7.50;3.00;;;7.50;99.90;;;;;;5093893;28;20044;-71
2022/04/20 07:00:34;;;;;;;9.93;3.30;;;7.90;99.90;;;;;;5093259;28;20407;-75
2022/04/20 07:03:06;;;;;;;7.57;2.95;;;8.00;99.90;;;;;;5093357;28;20252;-74
2022/04/20 07:05:32;;;;;;;;;;;8.20;99.90;;;;;;5093243;28;20123;-71
2022/04/20 07:07:58;;;;;;;7.50;2.70;;;8.60;99.90;;;;;;5093708;28;20319;-70
2022/04/20 07:10:23;;;;;;;7.95;2.95;;;8.40;99.90;;;;;;5074562;28;20124;-71
2022/04/20 07:12:51;;;;;;;9.30;2.72;;;8.30;99.90;;;;;;5092630;28;20119;-70
2022/04/20 07:15:16;;;;;;;8.10;3.58;;;8.90;99.90;;;;;;5074893;28;20560;-70
2022/04/20 07:17:42;;;;;;;7.68;2.88;;;8.50;99.90;;;;;;5074617;28;20131;-71
2022/04/20 07:20:10;;;;;;;8.82;2.50;;;8.60;99.90;;;;;;5093508;28;20089;-71
2022/04/20 07:22:37;;;;;;;9.32;3.70;;;8.70;99.90;;;;;;5092131;28;20036;-71
2022/04/20 07:25:04;;;;;;;9.00;2.78;;;8.90;99.90;;;;;;5093274;28;20165;-70
2022/04/20 07:27:29;;;;;;;7.35;2.88;;;8.90;99.90;;;;;;5092143;28;20052;-70
2022/04/20 07:29:55;;;;;;;6.65;2.63;;;9.00;99.90;;;;;;5092222;28;20075;-71
2022/04/20 07:32:20;;;;;;;7.80;2.40;;;9.30;99.90;;;;;;5093674;28;20040;-70
2022/04/20 07:34:46;;;;;;;8.13;2.83;;;9.30;99.90;;;;;;5073213;28;20196;-71
2022/04/20 07:37:12;;;;;;;8.20;2.85;;;9.40;99.90;;;;;;5072238;28;20044;-71
2022/04/20 07:39:38;;;;;;;8.05;2.90;;;9.50;99.90;;;;;;5086914;28;20055;-71
2022/04/20 07:42:05;;;;;;;6.18;2.30;;;9.70;99.90;;;;;;5081082;28;20040;-70
2022/04/20 07:44:30;;;;;;;8.60;3.10;;;9.60;99.90;;;;;;5108154;28;20100;-70
2022/04/20 07:46:56;;;;;;;7.15;2.38;;;9.70;99.90;;;;;;5075133;28;20457;-69
2022/04/20 07:52:06;;;;;;;7.22;2.40;;;9.80;99.90;;;;;;5105271;28;20134;-72
2022/04/20 07:54:32;;;;;;;6.47;2.03;;;10.00;99.90;;;;;;5109314;28;20044;-72
2022/04/20 07:56:57;;;;;;;6.47;1.77;;;10.10;99.90;;;;;;5075756;28;20376;-71
2022/04/20 07:59:23;;;;;;;6.07;1.98;;;10.20;99.90;;;;;;5069833;28;20050;-72
2022/04/20 08:01:49;;;;;;;7.38;2.20;;;10.30;99.90;;;;;;5097521;28;20066;-71
2022/04/20 08:04:16;;;;;;;6.65;2.20;;;10.40;99.90;;;;;;5105950;22;20048;-69
2022/04/20 08:06:42;;;;;;;7.82;2.47;;;10.50;99.90;;;;;;5048926;28;20057;-68
2022/04/20 08:09:07;;;;;;;7.07;2.20;;;10.50;99.90;;;;;;5060910;28;20051;-68
2022/04/20 08:11:33;;;;;;;8.80;2.10;;;10.60;99.90;;;;;;5050721;28;20538;-69
2022/04/20 08:14:10;;;;;;;5.25;2.05;;;10.80;99.90;;;;;;5046985;28;20093;-69
2022/04/20 08:16:37;;;;;;;5.28;1.92;;;10.80;99.90;;;;;;5050880;28;20070;-69
2022/04/20 08:19:03;;;;;;;5.28;1.83;;;10.80;99.90;;;;;;5046529;28;20045;-69
2022/04/20 08:21:29;;;;;;;7.53;2.20;;;10.90;99.90;;;;;;5048281;28;20111;-69
2022/04/20 08:23:54;;;;;;;4.20;1.60;;;11.10;99.90;;;;;;5048698;28;20060;-68
2022/04/20 08:26:20;;;;;;;8.57;2.25;;;11.10;99.60;;;;;;5049959;28;20041;-69
2022/04/20 08:28:46;;;;;;;5.50;1.83;;;11.20;99.50;;;;;;5050330;28;20051;-69
2022/04/20 08:31:15;;;;;;;5.63;2.00;;;11.80;99.90;;;;;;5050373;28;20064;-69
2022/04/20 08:33:41;;;;;;;5.68;2.00;;;11.40;97.40;;;;;;5050376;28;20048;-69
2022/04/20 08:36:07;;;;;;;5.65;1.70;;;11.40;96.20;;;;;;5050031;28;20377;-69
2022/04/20 08:38:33;;;;;;;4.90;1.90;;;11.50;95.60;;;;;;5047444;28;20060;-69
2022/04/20 08:41:00;;;;;;;3.78;1.40;;;11.60;95.20;;;;;;5049609;28;20409;-69
2022/04/20 08:43:28;;;;;;;6.85;2.20;;;11.70;94.40;;;;;;5048308;28;20052;-69
2022/04/20 08:45:58;;;;;;;5.25;1.95;;;11.80;92.50;;;;;;5049386;28;20451;-69
2022/04/20 08:48:24;;;;;;;4.13;1.50;;;11.90;90.30;;;;;;5049765;28;20451;-69
2022/04/20 08:50:55;;;;;;;3.75;1.23;;;12.00;84.90;;;;;;5014923;28;20560;-69
2022/04/20 08:53:21;;;;;;;5.38;2.00;;;12.00;82.10;;;;;;5056958;28;20040;-69
2022/04/20 08:55:47;;;;;;;4.78;1.80;;;12.10;83.00;;;;;;5068963;28;20458;-69
2022/04/20 08:58:15;;;;;;;6.32;1.88;;;12.40;83.00;;;;;;5049037;28;20408;-69
2022/04/20 09:00:41;;;;;;;4.95;1.48;;;12.40;81.30;;;;;;5052567;28;20116;-69
2022/04/20 09:03:07;;;;;;;6.57;1.80;;;12.40;78.40;;;;;;5054689;28;20055;-69
2022/04/20 09:05:34;;;;;;;4.03;1.50;;;12.40;76.80;;;;;;5054881;28;20122;-69
2022/04/20 09:08:11;;;;;;;6.95;1.75;;;12.50;76.70;;;;;;5034247;28;20052;-69
2022/04/20 09:10:38;;;;;;;4.68;1.50;;;12.50;77.60;;;;;;5055107;28;20037;-69
2022/04/20 09:13:04;;;;;;;5.20;1.80;;;12.80;78.10;;;;;;5069655;28;20048;-69
2022/04/20 09:15:32;;;;;;;4.22;1.52;;;13.00;76.00;;;;;;5073203;28;20048;-69
2022/04/20 09:18:01;;;;;;;5.32;1.80;;;13.10;75.40;;;;;;5070419;28;20040;-70
2022/04/20 09:20:27;;;;;;;5.47;1.50;;;13.10;76.30;;;;;;5056127;28;20151;-69
2022/04/20 09:23:13;;;;;;;6.72;1.58;;;13.20;76.30;;;;;;5054254;28;20135;-69
2022/04/20 09:25:41;;;;;;;5.47;1.45;;;13.30;72.80;;;;;;5054553;28;20567;-69
2022/04/20 09:28:07;;;;;;;4.07;1.23;;;13.30;70.60;;;;;;5058301;28;20044;-69
2022/04/20 09:30:36;;;;;;;2.67;1.15;;;13.40;68.70;;;;;;5053038;28;20037;-70
2022/04/20 09:33:09;;;;;;;4.82;1.40;;;13.50;70.50;;;;;;5047241;28;20069;-69
2022/04/20 09:35:46;;;;;;;5.95;1.70;;;13.60;70.40;;;;;;5052585;28;20044;-71
2022/04/20 09:38:14;;;;;;;6.70;1.50;;;13.70;68.40;;;;;;5043867;28;20048;-72
2022/04/20 09:40:40;;;;;;;5.00;1.40;;;13.80;69.90;;;;;;5052171;28;20817;-70
2022/04/20 09:43:09;;;;;;;4.72;1.30;;;13.90;70.10;;;;;;5053127;28;20068;-71
2022/04/20 09:45:36;;;;;;;6.15;1.67;;;14.00;67.60;;;;;;5052984;28;20037;-71
2022/04/20 09:51:11;;;;;;;4.38;1.38;;;14.10;68.40;;;;;;5072713;28;20110;-72
2022/04/20 09:53:37;;;;;;;5.22;1.60;;;14.20;67.80;;;;;;5050654;28;20045;-71
2022/04/20 09:56:23;;;;;;;5.35;1.40;;;14.30;69.00;;;;;;5050827;28;20088;-72
2022/04/20 09:58:58;;;;;;;3.25;1.38;;;14.40;67.80;;;;;;5061886;28;20560;-72
2022/04/20 10:01:33;;;;;;;6.32;1.60;;;14.70;67.20;;;;;;5050001;28;20037;-73
2022/04/20 10:04:00;;;;;;;3.47;1.40;;;14.80;69.10;;;;;;5065790;28;20059;-73
2022/04/20 10:06:26;;;;;;;3.67;1.50;;;14.80;67.10;;;;;;5055126;28;20079;-72
2022/04/20 10:08:52;;;;;;;4.68;1.60;;;14.70;63.80;;;;;;5050880;28;20090;-71
2022/04/20 10:11:22;;;;;;;3.70;1.58;;;14.50;64.00;;;;;;5052895;28;20067;-73
2022/04/20 10:16:05;;;;;;;4.30;1.48;;;14.50;64.10;;;;;;5050055;28;20055;-71
2022/04/20 10:16:38;;;;;;;3.70;1.50;;;14.60;63.60;;;;;;5063831;28;20048;-74
2022/04/20 10:19:10;;;;;;;3.70;1.27;;;14.50;61.90;;;;;;5057098;28;20503;-72
2022/04/20 10:21:43;;;;;;;3.03;1.27;;;14.40;62.60;;;;;;5050926;28;20048;-71
2022/04/20 10:24:14;;;;;;;4.03;1.40;;;14.40;61.90;;;;;;5066197;28;20040;-72
2022/04/20 10:26:40;;;;;;;5.63;1.33;;;14.50;61.60;;;;;;5053280;28;20045;-74
2022/04/20 10:29:45;;;;;;;4.32;1.70;;;14.70;61.30;;;;;;5059238;28;20106;-72
2022/04/20 10:32:22;;;;;;;4.13;1.40;;;14.80;60.80;;;;;;5069788;28;20098;-71
2022/04/20 10:34:50;;;;;;;3.33;1.30;;;14.90;59.50;;;;;;5059096;28;20048;-73
2022/04/20 10:37:25;;;;;;;4.45;1.30;;;15.00;59.30;;;;;;5051943;28;20045;-73
2022/04/20 10:39:53;;;;;;;3.42;1.20;;;15.00;56.40;;;;;;5049255;28;20114;-74
2022/04/20 10:42:20;;;;;;;3.78;0.90;;;14.90;57.20;;;;;;5050998;28;20049;-72
2022/04/20 10:44:50;;;;;;;3.15;1.23;;;14.90;55.90;;;;;;5035519;28;20056;-72
2022/04/20 10:47:36;;;;;;;4.03;1.30;;;15.00;56.50;;;;;;5050384;28;20396;-74
2022/04/20 10:50:17;;;;;;;3.47;1.17;;;15.00;53.60;;;;;;5032856;28;20064;-72
2022/04/20 10:52:48;;;;;;;3.85;1.27;;;15.00;53.60;;;;;;5051912;28;20139;-73
2022/04/20 10:55:13;;;;;;;5.75;1.00;;;15.10;56.50;;;;;;5065677;28;20048;-70
2022/04/20 10:57:41;;;;;;;5.07;1.20;;;15.20;55.80;;;;;;5042734;28;20041;-73
2022/04/20 11:00:19;;;;;;;3.85;1.20;;;15.30;55.30;;;;;;5053694;28;20037;-71
2022/04/20 11:02:49;;;;;;;3.78;1.30;;;15.30;55.00;;;;;;5048586;28;20132;-73
2022/04/20 11:05:19;;;;;;;4.32;1.45;;;15.40;55.80;;;;;;5051994;28;20049;-74
2022/04/20 11:07:59;;;;;;;3.08;1.20;;;15.60;55.90;;;;;;5048855;28;20056;-73
2022/04/20 11:10:26;;;;;;;2.53;1.10;;;15.60;55.30;;;;;;5052385;28;20059;-74
2022/04/20 11:18:44;;;;;;;4.97;2.08;;;15.70;55.80;;;;;;5058242;28;20052;-73
2022/04/20 11:21:16;;;;;;;3.92;1.30;;;15.80;55.40;;;;;;5071059;28;20127;-74
2022/04/20 11:24:03;;;;;;;3.97;1.50;;;16.00;55.40;;;;;;5049462;28;20429;-74
2022/04/20 11:26:31;;;;;;;3.65;1.20;;;16.00;55.40;;;;;;5052734;28;20485;-73
2022/04/20 11:29:22;;;;;;;3.95;1.50;;;16.10;55.60;;;;;;5060509;28;20056;-74
2022/04/20 11:32:02;;;;;;;3.58;1.20;;;16.00;53.80;;;;;;5070595;28;20123;-73
2022/04/20 11:34:32;;;;;;;4.00;1.52;;;16.00;53.60;;;;;;5055115;28;20045;-73
2022/04/20 11:37:00;;;;;;;4.10;1.23;;;16.00;54.20;;;;;;5062122;28;20048;-73
2022/04/20 11:39:28;;;;;;;5.03;1.60;;;16.10;54.60;;;;;;5051866;28;20547;-73
2022/04/20 11:42:02;;;;;;;3.75;1.52;;;16.20;54.00;;;;;;5051965;28;20550;-73
2022/04/20 11:44:32;;;;;;;3.55;1.35;;;16.30;53.00;;;;;;5065619;28;20055;-73
2022/04/20 11:47:03;;;;;;;3.30;1.10;;;16.40;54.10;;;;;;5065999;28;20094;-78
2022/04/20 11:49:40;;;;;;;3.28;1.30;;;16.40;53.50;;;;;;5029514;28;20061;-79
2022/04/20 11:52:11;;;;;;;5.25;1.30;;;16.30;54.40;;;;;;5042190;28;20087;-77
2022/04/20 11:54:38;;;;;;;3.38;1.17;;;16.20;54.20;;;;;;5042405;28;20049;-80
2022/04/20 11:57:05;;;;;;;4.38;1.40;;;16.10;54.50;;;;;;5059655;28;20748;-81
2022/04/20 11:59:30;;;;;;;3.25;1.25;;;16.20;55.20;;;;;;5050431;28;20037;-77
2022/04/20 12:01:57;;;;;;;2.80;1.10;;;16.20;54.80;;;;;;5050904;28;20557;-74
2022/04/20 12:04:28;;;;;;;3.58;1.33;;;16.30;54.50;;;;;;5029910;28;20107;-74
2022/04/20 12:06:57;;;;;;;4.50;1.73;;;16.40;54.80;;;;;;5011493;28;20045;-73
2022/04/20 12:09:31;;;;;;;4.25;1.40;;;16.50;53.30;;;;;;5010033;28;20049;-72
2022/04/20 12:12:01;;;;;;;4.32;1.80;;;16.40;54.40;;;;;;5029928;28;20555;-71
2022/04/20 12:14:33;;;;;;;3.22;1.35;;;16.30;54.80;;;;;;5025638;28;20064;-72
2022/04/20 12:17:08;;;;;;;5.68;1.75;;;16.40;55.50;;;;;;5010531;28;20115;-73
2022/04/20 12:19:34;;;;;;;5.68;1.73;;;16.40;54.90;;;;;;5009701;28;20083;-72
2022/04/20 12:22:12;;;;;;;4.03;1.50;;;16.60;56.00;;;;;;5010746;28;20057;-69
2022/04/20 12:24:38;;;;;;;6.43;1.50;;;16.50;55.60;;;;;;5029874;28;20095;-68
2022/04/20 12:27:19;;;;;;;3.47;1.45;;;16.40;54.70;;;;;;5029097;28;20033;-69
2022/04/20 12:29:52;;;;;;;7.28;2.13;;;16.50;55.10;;;;;;5028088;28;20055;-71
2022/04/20 12:32:24;;;;;;;5.40;1.60;;;16.40;55.30;;;;;;5029915;28;20342;-69
2022/04/20 12:34:54;;;;;;;3.40;1.35;;;16.40;56.00;;;;;;5029852;28;20049;-69
2022/04/20 12:37:29;;;;;;;5.53;1.65;;;16.40;56.00;;;;;;5036604;28;20033;-69
2022/04/20 12:39:55;;;;;;;4.72;1.63;;;16.40;56.30;;;;;;5014575;28;20032;-69
2022/04/20 12:42:21;;;;;;;4.65;1.88;;;16.50;56.40;;;;;;5034600;28;20049;-72
2022/04/20 12:44:54;;;;;;;4.30;1.70;;;16.50;56.50;;;;;;5032714;28;20040;-72
2022/04/20 12:47:20;;;;;;;4.68;1.65;;;16.60;56.60;;;;;;5013908;28;20037;-73
2022/04/20 12:50:00;;;;;;;5.95;1.83;;;16.70;56.50;;;;;;5011931;28;20045;-71
2022/04/20 12:52:30;;;;;;;4.15;1.70;;;16.60;55.90;;;;;;5012818;28;20048;-73
2022/04/20 12:54:56;;;;;;;9.30;2.90;;;16.70;57.10;;;;;;5013564;28;20061;-72
2022/04/20 13:03:08;;;;;;;4.90;1.73;;;16.60;57.00;;;;;;5035357;28;20068;-72
2022/04/20 13:05:37;;;;;;;4.85;1.92;;;16.60;57.10;;;;;;5053036;28;20049;-72
2022/04/20 13:08:04;;;;;;;6.18;1.85;;;16.50;57.50;;;;;;5032988;28;20420;-72
2022/04/20 13:10:30;;;;;;;5.57;2.00;;;16.50;57.10;;;;;;5052425;28;20076;-71
2022/04/20 13:12:57;;;;;;;5.93;1.88;;;16.70;57.50;;;;;;5052612;28;20047;-73
2022/04/20 13:15:24;;;;;;;6.03;1.98;;;16.60;57.00;;;;;;5051916;28;20056;-70
2022/04/20 13:17:51;;;;;;;5.75;2.17;;;16.50;57.20;;;;;;5032267;28;20084;-72
2022/04/20 13:20:17;;;;;;;6.25;1.92;;;16.60;57.70;;;;;;5034465;28;20064;-70
2022/04/20 13:22:43;;;;;;;6.15;1.65;;;16.50;57.10;;;;;;5052017;28;20052;-73
2022/04/20 13:27:54;;;;;;;4.95;1.55;;;16.60;55.80;;;;;;5051524;28;20060;-69
2022/04/20 13:30:27;;;;;;;4.78;1.60;;;16.50;55.10;;;;;;5053105;28;20041;-71
2022/04/20 13:32:55;;;;;;;4.95;1.65;;;16.70;56.00;;;;;;5033118;28;20083;-72
2022/04/20 13:35:21;;;;;;;6.22;1.63;;;16.80;55.50;;;;;;5051755;28;20160;-71
2022/04/20 13:37:47;;;;;;;6.72;2.30;;;16.80;55.60;;;;;;5031398;28;20548;-71
2022/04/20 13:40:13;;;;;;;6.38;1.98;;;16.70;56.20;;;;;;5033063;28;20057;-71
2022/04/20 13:42:39;;;;;;;6.50;2.30;;;16.80;57.10;;;;;;5034750;28;20098;-72
2022/04/20 13:45:05;;;;;;;6.63;1.95;;;16.80;57.60;;;;;;5050529;28;20106;-71
2022/04/20 13:47:31;;;;;;;5.65;2.35;;;16.70;57.20;;;;;;5032806;28;20061;-70
2022/04/20 13:49:56;;;;;;;5.47;2.40;;;16.60;57.30;;;;;;5051181;28;20041;-71
2022/04/20 13:52:23;;;;;;;6.03;1.88;;;16.60;57.70;;;;;;5032518;28;20110;-70
2022/04/20 13:54:50;;;;;;;4.47;1.88;;;16.70;57.70;;;;;;5051385;28;20040;-71
2022/04/20 13:57:15;;;;;;;8.68;2.67;;;16.80;58.40;;;;;;5033331;28;20128;-70
2022/04/20 13:59:41;;;;;;;6.20;2.17;;;16.90;58.60;;;;;;5037495;28;20182;-71